Cantwell, Alaska
Current Conditions -  °F | °C
As of 5:36 PM on Friday 24 Oct 2014 (Local Time) from PAIN Reporting Station
Broken Clouds Broken Clouds  
Wind Chill: 19°   Ceiling: 2000
Heat Index: 27°   Visibility: 6mi
Dew Point: 27°   Wind: 7mph
Humidity: 100%   Direction: 360°N
Pressure: 29.84"   Gusts: NA
Location:  63.39°N, 148.95°W
Report Text: PAIN 250136Z AUTO 36006KT 6SM BKN020 M03/M03 A2984 RMK AO1
Loading
Personal Weather Stations






























Interactive Weather Map
Tropical Storm Tracking
New forecast layout! Learn more

10-Day Weather Forecast

Advertisements
Track Severe Weather on mobile